Mercredi 20 Novembre 2019
09H09 UTC - 10H09 CET

Metar-Taf

Cet outil web permet d'analyser et de traduire les messages METAR et TAF.

Par exemple :

METAR LFST 310930Z 31008KT 9999 SCT026 BKN046 10/04 Q1019 NOSIG=
  • Situation actuelle : STRASBOURG ENTZHEIM
  • Observation du 29 à 15h00
  • Vent du 220°, force 03 noeuds - La direction varie entre 160° et 310°
  • Visibilité minimale 6000 m dans la direction NE - Visibilité maximale 3000 m dans la direction N
  • ...

Données à traduire

Haut de la page